Time;durP1;ratioP1;P1;durP2;ratioP2;P2;SDS_P1;SDS_P2;PMS_P1;PMS_P2;Temp;Humidity;BMP_temperature;BMP_pressure;BME280_temperature;BME280_humidity;BME280_pressure;Samples;Min_cycle;Max_cycle;Signal;HPM_P1;HPM_P2
2022/09/19 00:01:48;;;;;;;4.78;2.70;;;;;;;18.94;51.67;101579.88;5041024;28;20025;-60
2022/09/19 00:04:17;;;;;;;3.53;2.35;;;;;;;18.94;51.59;101588.81;5039617;28;20053;-60
2022/09/19 00:06:44;;;;;;;3.58;2.20;;;;;;;18.83;51.55;101575.59;5042110;28;20033;-60
2022/09/19 00:09:12;;;;;;;4.93;2.58;;;;;;;18.93;51.82;101588.97;5042092;28;20088;-61
2022/09/19 00:11:39;;;;;;;4.65;2.55;;;;;;;18.93;51.59;101584.44;5042937;28;20036;-60
2022/09/19 00:14:06;;;;;;;4.38;2.58;;;;;;;18.89;51.88;101580.34;5040136;28;20065;-60
2022/09/19 00:16:35;;;;;;;7.13;2.85;;;;;;;18.93;51.59;101589.81;5042337;28;20261;-60
2022/09/19 00:19:00;;;;;;;;;;;;;;;18.93;51.60;101599.75;5044807;28;20032;-60
2022/09/19 00:21:29;;;;;;;4.43;2.78;;;;;;;18.90;51.48;101592.84;5040742;28;19917;-60
2022/09/19 00:26:39;;;;;;;4.15;2.05;;;;;;;18.88;51.49;101594.81;5037502;28;20037;-59
2022/09/19 00:29:06;;;;;;;4.38;2.50;;;;;;;18.89;51.60;101595.66;5038362;28;20022;-61
2022/09/19 00:31:31;;;;;;;4.00;2.25;;;;;;;18.82;51.76;101592.75;5036381;28;20032;-60
2022/09/19 00:33:57;;;;;;;3.08;2.05;;;;;;;18.89;51.51;101601.06;5037903;28;20029;-61
2022/09/19 00:36:23;;;;;;;3.72;2.13;;;;;;;18.90;51.71;101605.44;5038687;28;20022;-59
2022/09/19 00:38:48;;;;;;;3.80;2.30;;;;;;;18.85;51.76;101596.97;5041666;28;20022;-61
2022/09/19 00:41:25;;;;;;;4.50;2.10;;;;;;;18.89;51.63;101609.16;4999065;28;20082;-61
2022/09/19 00:43:56;;;;;;;3.50;2.17;;;;;;;18.87;51.70;101598.53;4999880;28;20042;-61
2022/09/19 00:46:24;;;;;;;3.85;2.35;;;;;;;18.88;51.83;101608.31;4999258;28;20029;-60
2022/09/19 00:48:53;;;;;;;4.40;2.78;;;;;;;18.88;51.60;101613.69;5000131;28;20129;-60
2022/09/19 00:51:31;;;;;;;3.80;2.20;;;;;;;18.87;51.70;101601.22;4996942;28;20066;-60
2022/09/19 00:53:59;;;;;;;5.10;2.58;;;;;;;18.84;51.40;101601.50;4999426;28;20034;-60
2022/09/19 00:56:25;;;;;;;4.82;2.13;;;;;;;18.86;51.52;101607.63;4999279;28;20113;-60
2022/09/19 00:58:51;;;;;;;5.05;1.77;;;;;;;18.73;51.45;101582.84;4996678;28;20022;-59
2022/09/19 01:01:17;;;;;;;4.63;1.77;;;;;;;18.86;51.78;101614.81;4998764;28;20065;-60
2022/09/19 01:03:45;;;;;;;4.72;2.38;;;;;;;18.86;51.70;101620.22;4999989;28;20117;-60
2022/09/19 01:06:23;;;;;;;4.57;2.40;;;;;;;18.86;51.75;101617.53;5001929;28;20018;-61
2022/09/19 01:09:12;;;;;;;2.72;1.77;;;;;;;18.85;51.81;101613.97;5009397;28;20073;-60
2022/09/19 01:12:08;;;;;;;4.30;1.80;;;;;;;18.85;51.61;101613.97;4998578;28;20116;-59
2022/09/19 01:14:47;;;;;;;5.25;1.92;;;;;;;18.85;51.65;101618.53;4997918;28;20053;-59
2022/09/19 01:17:19;;;;;;;;;;;;;;;18.84;51.49;101619.53;5000961;28;20041;-60
2022/09/19 01:19:59;;;;;;;4.15;2.20;;;;;;;18.83;51.55;101620.53;4997160;28;19910;-60
2022/09/19 01:22:24;;;;;;;4.55;2.17;;;;;;;18.82;51.58;101616.13;4997049;28;20026;-60
2022/09/19 01:25:00;;;;;;;3.97;1.83;;;;;;;18.81;51.58;101617.97;5003217;28;20048;-60
2022/09/19 01:27:55;;;;;;;2.95;1.70;;;;;;;18.82;51.71;101619.69;4990210;28;20042;-58
2022/09/19 01:30:20;;;;;;;3.88;1.73;;;;;;;18.81;51.84;101623.38;4994109;28;20039;-59
2022/09/19 01:32:55;;;;;;;2.58;1.90;;;;;;;18.81;51.70;101628.75;4995501;28;20037;-60
2022/09/19 01:35:24;;;;;;;3.42;2.20;;;;;;;18.80;51.78;101624.38;4993561;28;20547;-59
2022/09/19 01:37:56;;;;;;;3.55;2.30;;;;;;;18.81;51.67;101630.59;4997174;28;20034;-60
2022/09/19 01:40:22;;;;;;;2.70;1.95;;;;;;;18.80;51.43;101629.75;5009635;28;20045;-57
2022/09/19 01:42:56;;;;;;;3.78;2.08;;;;;;;18.80;51.75;101618.97;5020622;28;20116;-60
2022/09/19 01:45:31;;;;;;;2.75;2.20;;;;;;;18.78;51.76;101630.94;5015850;28;20018;-59
2022/09/19 01:48:01;;;;;;;3.65;2.22;;;;;;;18.79;51.51;101630.75;5017772;28;20033;-60
2022/09/19 01:50:39;;;;;;;4.28;2.45;;;;;;;18.79;51.44;101630.75;5016555;28;20022;-59
2022/09/19 01:53:07;;;;;;;4.10;1.83;;;;;;;18.79;51.71;101635.31;5020563;28;20112;-59
2022/09/19 01:55:41;;;;;;;3.38;1.73;;;;;;;18.79;51.65;101629.91;5018935;28;20036;-60
2022/09/19 01:58:08;;;;;;;2.58;1.63;;;;;;;18.78;51.71;101637.16;5019824;28;20041;-59
2022/09/19 02:00:38;;;;;;;3.38;1.73;;;;;;;18.73;51.57;101626.84;5016922;28;20482;-60
2022/09/19 02:03:23;;;;;;;3.80;2.15;;;;;;;18.78;51.78;101630.94;5014760;28;20048;-60
2022/09/19 02:06:06;;;;;;;4.40;1.80;;;;;;;18.78;51.66;101634.47;5012102;28;20025;-60
2022/09/19 02:08:34;;;;;;;3.33;1.92;;;;;;;18.77;51.74;101635.44;5017011;28;20017;-59
2022/09/19 02:11:04;;;;;;;3.58;1.95;;;;;;;18.77;51.78;101629.19;5020382;28;20058;-60
2022/09/19 02:13:32;;;;;;;2.85;1.80;;;;;;;18.77;51.56;101629.19;5022269;28;20105;-59
2022/09/19 02:16:04;;;;;;;2.75;1.55;;;;;;;18.76;51.70;101630.22;5015319;28;20018;-59
2022/09/19 02:19:08;;;;;;;2.75;1.88;;;;;;;18.76;51.75;101630.22;5016682;28;20045;-59
2022/09/19 02:21:45;;;;;;;3.95;1.90;;;;;;;18.76;51.44;101633.75;4942230;29;20031;-59
2022/09/19 02:24:15;;;;;;;3.75;2.22;;;;;;;18.75;51.86;101629.38;4931258;29;20031;-60
2022/09/19 02:26:42;;;;;;;3.67;2.15;;;;;;;18.74;51.69;101627.69;4946742;29;20028;-59
2022/09/19 02:29:12;;;;;;;3.95;1.90;;;;;;;18.73;51.73;101625.97;4924500;29;20111;-60
2022/09/19 02:31:38;;;;;;;2.80;1.88;;;;;;;18.66;51.44;101625.69;4951337;29;20043;-59
2022/09/19 02:34:05;;;;;;;3.83;1.90;;;;;;;18.74;51.60;101641.16;4928990;29;20043;-60
2022/09/19 02:36:50;;;;;;;3.20;1.77;;;;;;;18.74;51.81;101641.16;4942569;29;20130;-60
2022/09/19 02:39:20;;;;;;;3.17;1.83;;;;;;;18.73;51.80;101645.69;4944869;29;20273;-60
2022/09/19 02:42:02;;;;;;;3.92;2.10;;;;;;;18.72;51.62;101648.50;4944403;29;20034;-59
2022/09/19 02:44:57;;;;;;;2.83;1.55;;;;;;;18.71;51.47;101647.66;4943109;29;20050;-59
2022/09/19 02:47:27;;;;;;;3.05;1.88;;;;;;;18.71;51.62;101653.06;4932366;29;20059;-60
2022/09/19 02:49:57;;;;;;;2.47;1.40;;;;;;;18.72;51.41;101649.34;4939892;29;20032;-60
2022/09/19 02:52:33;;;;;;;3.47;1.65;;;;;;;18.71;51.25;101650.38;4983275;28;20048;-60
2022/09/19 02:55:04;;;;;;;3.25;1.50;;;;;;;18.64;51.62;101640.28;5018111;28;20025;-61
2022/09/19 02:57:32;;;;;;;2.40;1.60;;;;;;;18.70;51.51;101653.22;5018534;28;20014;-60
2022/09/19 02:59:59;;;;;;;4.67;1.83;;;;;;;18.62;51.36;101640.47;5018831;28;20045;-59
2022/09/19 03:02:56;;;;;;;2.85;1.70;;;;;;;18.67;51.49;101650.78;5019020;28;20068;-60
2022/09/19 03:05:23;;;;;;;3.05;1.60;;;;;;;18.69;51.32;101654.16;5009754;28;20057;-59
2022/09/19 03:07:55;;;;;;;3.33;1.58;;;;;;;18.69;51.64;101654.16;5020157;28;20392;-60
2022/09/19 03:10:24;;;;;;;2.33;1.40;;;;;;;18.68;51.26;101655.16;5018938;28;20017;-59
2022/09/19 03:12:51;;;;;;;;;;;;;;;18.68;51.27;101652.47;5017838;28;20148;-60
2022/09/19 03:15:22;;;;;;;2.60;1.60;;;;;;;18.68;51.70;101661.41;5013555;28;19917;-60
2022/09/19 03:17:49;;;;;;;2.58;1.67;;;;;;;18.68;51.47;101663.25;5019006;28;20041;-60
2022/09/19 03:20:16;;;;;;;1.63;1.25;;;;;;;18.68;51.66;101655.16;5021077;28;20150;-60
2022/09/19 03:22:41;;;;;;;3.15;1.42;;;;;;;18.67;51.32;101658.84;5014895;28;20018;-59
2022/09/19 03:25:08;;;;;;;2.28;1.48;;;;;;;18.66;51.42;101655.31;5016098;28;20026;-60
2022/09/19 03:27:36;;;;;;;2.88;1.58;;;;;;;18.66;51.48;101657.16;5020625;28;20073;-60
2022/09/19 03:30:07;;;;;;;2.25;1.50;;;;;;;18.67;51.72;101661.56;5023752;28;20081;-59
2022/09/19 03:32:34;;;;;;;2.83;1.58;;;;;;;18.58;51.63;101651.69;5021376;28;20105;-60
2022/09/19 03:34:59;;;;;;;3.08;1.67;;;;;;;18.66;51.50;101667.94;5019875;28;20023;-59
2022/09/19 03:37:25;;;;;;;3.00;1.58;;;;;;;18.66;51.28;101674.19;5023490;28;20018;-60
2022/09/19 03:39:51;;;;;;;2.05;1.50;;;;;;;18.66;51.46;101671.50;5031426;28;20564;-60
2022/09/19 03:42:19;;;;;;;3.80;1.67;;;;;;;18.66;51.37;101674.19;5042984;28;20034;-60
2022/09/19 03:44:44;;;;;;;4.00;1.85;;;;;;;18.65;51.64;101677.03;5041841;28;20410;-60
2022/09/19 03:47:09;;;;;;;2.85;1.27;;;;;;;18.66;51.51;101676.88;5040622;28;20033;-60
2022/09/19 03:49:35;;;;;;;3.78;1.70;;;;;;;18.67;51.30;101681.25;5040138;28;20577;-60
2022/09/19 03:52:00;;;;;;;3.67;1.75;;;;;;;18.65;51.59;101683.25;5042492;28;20023;-60
2022/09/19 03:54:25;;;;;;;2.72;1.40;;;;;;;18.65;51.44;101685.13;5042486;28;20036;-60
2022/09/19 03:56:51;;;;;;;3.63;1.50;;;;;;;18.65;51.29;101679.72;5042764;28;20087;-60
2022/09/19 03:59:16;;;;;;;3.20;1.60;;;;;;;18.57;51.53;101668.84;5042131;28;20037;-61
2022/09/19 04:01:41;;;;;;;3.63;1.73;;;;;;;18.59;51.44;101675.75;5042632;28;20098;-62
2022/09/19 04:04:07;;;;;;;2.40;1.40;;;;;;;18.65;51.38;101677.88;5041724;28;20034;-60
2022/09/19 04:06:32;;;;;;;3.33;1.77;;;;;;;18.65;51.45;101682.41;5041958;28;20060;-60
2022/09/19 04:08:59;;;;;;;2.78;1.52;;;;;;;18.63;51.43;101687.94;5042649;28;20060;-60
2022/09/19 04:11:26;;;;;;;2.22;1.40;;;;;;;18.63;51.44;101685.25;5044711;28;20466;-60
2022/09/19 04:13:52;;;;;;;3.78;1.50;;;;;;;18.63;51.54;101687.09;5044229;28;20026;-61
2022/09/19 04:16:18;;;;;;;2.05;1.17;;;;;;;18.63;51.81;101690.63;5045498;28;20112;-59
2022/09/19 04:18:47;;;;;;;2.75;1.40;;;;;;;18.62;51.59;101688.94;5044289;28;20029;-60
2022/09/19 04:21:13;;;;;;;2.25;1.58;;;;;;;18.58;51.43;101687.53;5042966;28;20040;-60
2022/09/19 04:23:38;;;;;;;3.83;1.80;;;;;;;18.61;51.63;101697.19;5045250;28;20033;-60
2022/09/19 04:26:05;;;;;;;2.60;1.77;;;;;;;18.60;51.77;101696.31;5043953;28;20061;-60
2022/09/19 04:28:31;;;;;;;3.72;1.58;;;;;;;18.56;51.60;101683.28;5044118;28;20048;-60
2022/09/19 04:30:56;;;;;;;2.17;1.23;;;;;;;18.59;51.56;101693.75;5026033;28;20481;-60
2022/09/19 04:33:22;;;;;;;2.13;1.42;;;;;;;18.58;51.62;101702.84;5044086;28;20047;-60
2022/09/19 04:35:47;;;;;;;2.58;1.58;;;;;;;18.55;51.80;101695.91;5043069;28;20112;-58
2022/09/19 04:38:17;;;;;;;2.63;1.40;;;;;;;18.56;51.74;101708.38;5040728;28;20080;-60
2022/09/19 04:40:47;;;;;;;3.97;1.33;;;;;;;18.55;51.93;101705.81;5026372;28;20058;-60
2022/09/19 04:43:15;;;;;;;2.72;1.52;;;;;;;18.45;51.98;101695.09;5041524;28;20102;-60
2022/09/19 04:45:44;;;;;;;2.58;1.40;;;;;;;18.54;51.91;101706.84;5017412;28;20036;-60
2022/09/19 04:48:09;;;;;;;3.20;1.58;;;;;;;18.53;52.18;101703.28;5032685;28;20029;-60
2022/09/19 04:50:35;;;;;;;2.15;1.40;;;;;;;18.53;52.46;101710.53;5037782;28;20036;-60
2022/09/19 04:53:02;;;;;;;3.20;1.45;;;;;;;18.52;52.39;101715.06;5043912;28;20104;-60
2022/09/19 04:55:27;;;;;;;3.78;1.90;;;;;;;18.51;52.57;101715.19;5038359;28;20025;-59
2022/09/19 04:57:54;;;;;;;3.10;1.35;;;;;;;18.51;52.37;101718.72;5043482;28;20031;-60
2022/09/19 05:00:36;;;;;;;3.00;1.23;;;;;;;18.51;52.50;101721.44;5043360;28;20021;-60
2022/09/19 05:03:06;;;;;;;2.25;1.30;;;;;;;18.51;52.60;101718.72;5043461;28;20666;-60
2022/09/19 05:05:31;;;;;;;3.25;1.42;;;;;;;18.49;52.56;101718.88;5042989;28;20124;-60
2022/09/19 05:07:56;;;;;;;4.65;1.40;;;;;;;18.51;52.37;101729.50;5042054;28;20064;-61
2022/09/19 05:10:22;;;;;;;2.17;1.30;;;;;;;18.47;52.63;101723.56;5044899;28;20026;-60
2022/09/19 05:12:47;;;;;;;2.83;1.35;;;;;;;18.49;52.58;101729.66;5045342;28;20037;-61
2022/09/19 05:15:13;;;;;;;1.83;1.20;;;;;;;18.48;52.64;101729.81;5044218;28;20071;-60
2022/09/19 05:17:38;;;;;;;3.33;1.58;;;;;;;18.48;52.75;101730.66;5043628;28;20033;-59
2022/09/19 05:20:03;;;;;;;2.70;1.25;;;;;;;18.49;53.00;101731.50;5043664;28;20112;-60
2022/09/19 05:22:29;;;;;;;3.22;1.33;;;;;;;18.48;53.03;101735.19;5043915;28;20017;-60
2022/09/19 05:24:55;;;;;;;4.72;1.60;;;;;;;18.48;53.10;101733.34;5043648;28;20013;-60
2022/09/19 05:27:21;;;;;;;3.45;1.27;;;;;;;18.44;52.93;101734.63;5025865;28;20033;-58
2022/09/19 05:29:46;;;;;;;5.60;1.25;;;;;;;18.42;52.91;101733.06;5038125;28;20081;-61
2022/09/19 05:32:11;;;;;;;2.70;1.10;;;;;;;18.46;53.00;101745.25;5043336;28;20056;-59
2022/09/19 05:34:36;;;;;;;3.22;1.40;;;;;;;18.45;52.92;101739.03;5026236;28;20025;-60
2022/09/19 05:37:02;;;;;;;1.98;1.10;;;;;;;18.46;53.03;101750.63;5043159;28;20163;-60
2022/09/19 05:39:27;;;;;;;3.70;1.60;;;;;;;18.45;53.06;101748.94;5043284;28;20072;-60
2022/09/19 05:41:52;;;;;;;2.83;1.23;;;;;;;18.45;53.43;101751.63;5043901;28;20037;-61
2022/09/19 05:44:17;;;;;;;3.13;1.02;;;;;;;18.45;53.28;101752.50;5043259;28;20024;-60
2022/09/19 05:46:43;;;;;;;2.53;1.15;;;;;;;18.45;53.30;101747.09;5025444;28;20029;-60
2022/09/19 05:49:09;;;;;;;3.28;1.40;;;;;;;18.44;53.18;101753.50;5043248;28;20029;-59
2022/09/19 05:51:35;;;;;;;3.65;1.40;;;;;;;18.45;53.23;101763.25;5043163;28;20025;-60
2022/09/19 05:54:00;;;;;;;3.30;1.20;;;;;;;18.43;53.06;101742.84;5042869;28;20025;-60
2022/09/19 05:56:25;;;;;;;2.15;1.15;;;;;;;18.45;53.43;101763.25;5045748;28;20022;-60
2022/09/19 05:58:54;;;;;;;4.05;1.13;;;;;;;18.45;53.06;101771.34;5043110;28;20033;-60
2022/09/19 06:01:20;;;;;;;3.42;1.40;;;;;;;18.44;53.47;101764.25;5042930;28;20021;-60
2022/09/19 06:03:45;;;;;;;2.42;1.40;;;;;;;18.42;53.14;101760.00;5043376;28;20116;-60
2022/09/19 06:06:18;;;;;;;4.15;1.15;;;;;;;18.43;53.37;101769.78;5042515;28;20028;-60
2022/09/19 06:08:44;;;;;;;3.00;1.50;;;;;;;18.43;53.39;101772.47;5043460;28;20052;-59
2022/09/19 06:11:10;;;;;;;1.92;1.40;;;;;;;18.43;53.35;101772.47;5043878;28;20079;-60
2022/09/19 06:16:20;;;;;;;2.92;1.10;;;;;;;18.42;53.01;101777.00;5042903;28;20083;-61
2022/09/19 06:18:46;;;;;;;1.52;1.20;;;;;;;18.42;53.24;101779.69;5043193;28;20026;-61
2022/09/19 06:21:12;;;;;;;2.80;1.60;;;;;;;18.43;52.97;101785.94;5040954;28;20038;-61
2022/09/19 06:23:38;;;;;;;2.45;1.25;;;;;;;18.42;53.28;101782.38;5043195;28;20013;-60
2022/09/19 06:26:03;;;;;;;3.05;1.27;;;;;;;18.43;53.31;101791.31;5042385;28;20045;-60
2022/09/19 06:28:29;;;;;;;4.35;1.48;;;;;;;18.40;53.14;101787.09;5042185;28;20048;-60
2022/09/19 06:30:54;;;;;;;3.45;1.25;;;;;;;18.40;52.84;101787.09;5041880;28;20124;-60
2022/09/19 06:33:19;;;;;;;2.58;1.10;;;;;;;18.41;52.79;101790.63;5027951;28;20025;-60
2022/09/19 06:35:44;;;;;;;1.52;1.05;;;;;;;18.42;52.98;101795.84;5024056;28;20048;-60
2022/09/19 06:38:10;;;;;;;3.45;1.67;;;;;;;18.43;53.00;101800.22;5025731;28;20025;-60
2022/09/19 06:40:37;;;;;;;2.55;1.00;;;;;;;18.42;52.72;101792.31;5024298;28;20104;-60
2022/09/19 06:43:05;;;;;;;2.10;1.05;;;;;;;18.47;52.84;101804.34;5024784;28;20026;-60
2022/09/19 06:45:37;;;;;;;2.92;1.30;;;;;;;18.49;52.63;101806.91;5025964;28;20656;-59
2022/09/19 06:48:03;;;;;;;5.72;1.60;;;;;;;18.48;52.69;101806.06;5035775;28;20097;-59
2022/09/19 06:50:29;;;;;;;2.80;0.98;;;;;;;18.51;52.62;101804.91;5035940;28;20049;-59
2022/09/19 06:52:57;;;;;;;2.10;1.10;;;;;;;18.43;52.64;101794.84;5042829;28;20040;-60
2022/09/19 06:55:26;;;;;;;2.17;1.10;;;;;;;18.51;52.66;101804.06;5039633;28;20035;-60
2022/09/19 06:57:59;;;;;;;3.60;1.48;;;;;;;18.51;52.43;101809.44;5041548;28;20473;-60
2022/09/19 07:00:27;;;;;;;4.35;1.00;;;;;;;18.40;52.62;101795.16;5037363;28;20025;-56
2022/09/19 07:02:54;;;;;;;2.53;1.23;;;;;;;18.50;52.64;101816.69;5040567;28;20101;-60
2022/09/19 07:05:20;;;;;;;3.80;1.45;;;;;;;18.51;53.01;101818.38;5027821;28;20021;-62
2022/09/19 07:07:45;;;;;;;3.72;1.60;;;;;;;18.18;52.91;101766.72;5045712;28;20025;-64
2022/09/19 07:10:10;;;;;;;2.88;1.20;;;;;;;18.49;52.93;101810.44;5019153;28;20029;-62
2022/09/19 07:12:35;;;;;;;2.97;1.42;;;;;;;18.51;53.01;101815.69;5034088;28;20056;-64
2022/09/19 07:15:01;;;;;;;4.55;1.30;;;;;;;18.52;52.94;101814.72;5022797;28;20505;-62
2022/09/19 07:17:26;;;;;;;5.47;1.55;;;;;;;18.54;52.85;101822.63;5044448;28;20022;-64
2022/09/19 07:19:53;;;;;;;2.65;1.30;;;;;;;18.54;53.16;101834.25;5028455;28;20074;-66
2022/09/19 07:22:20;;;;;;;16.17;2.75;;;;;;;18.56;52.76;101831.41;5045351;28;20090;-63
2022/09/19 07:24:46;;;;;;;2.83;1.48;;;;;;;18.57;52.75;101830.44;5045607;28;20031;-63
2022/09/19 07:27:11;;;;;;;3.47;1.63;;;;;;;18.56;52.91;101828.72;5045924;28;20108;-64
2022/09/19 07:29:36;;;;;;;2.40;1.05;;;;;;;18.59;53.03;101836.50;5037016;28;20022;-65
2022/09/19 07:32:01;;;;;;;4.15;1.25;;;;;;;18.61;52.90;101840.78;5037999;28;20029;-64
2022/09/19 07:34:27;;;;;;;5.07;1.38;;;;;;;18.61;53.07;101835.38;5037062;28;20030;-64
2022/09/19 07:36:52;;;;;;;3.75;1.00;;;;;;;18.39;53.01;101796.16;5034311;28;20030;-68
2022/09/19 07:39:18;;;;;;;7.05;1.30;;;;;;;18.64;53.04;101834.22;5034489;28;20054;-65
2022/09/19 07:41:43;;;;;;;7.03;1.10;;;;;;;18.63;52.97;101843.31;5037488;28;20152;-65
2022/09/19 07:44:08;;;;;;;3.65;1.08;;;;;;;18.50;52.96;101822.06;5032621;28;20069;-66
2022/09/19 07:46:33;;;;;;;3.45;1.10;;;;;;;18.65;52.98;101842.19;5041906;28;20044;-65
2022/09/19 07:48:59;;;;;;;2.65;1.15;;;;;;;18.69;53.09;101848.09;5032255;28;20044;-65
2022/09/19 07:51:25;;;;;;;3.03;1.13;;;;;;;18.73;52.91;101852.25;5033902;28;20108;-64
2022/09/19 07:53:50;;;;;;;3.35;1.25;;;;;;;18.78;52.74;101846.44;5008256;28;20443;-61
2022/09/19 07:56:16;;;;;;;5.10;1.33;;;;;;;18.80;52.73;101864.16;5043508;28;20084;-69
2022/09/19 07:58:42;;;;;;;5.82;1.83;;;;;;;18.87;52.62;101869.81;5039331;28;20033;-62
2022/09/19 08:01:07;;;;;;;3.55;1.10;;;;;;;18.87;52.71;101859.03;4997167;28;20021;-62
2022/09/19 08:03:32;;;;;;;3.58;1.20;;;;;;;18.92;52.46;101864.84;5035651;28;20026;-64
2022/09/19 08:05:59;;;;;;;4.50;1.25;;;;;;;18.94;52.54;101861.00;5039754;28;20049;-62
2022/09/19 08:08:25;;;;;;;2.38;1.00;;;;;;;18.97;52.12;101858.00;5035796;28;20060;-63
2022/09/19 08:10:51;;;;;;;2.22;1.00;;;;;;;18.98;52.31;101866.94;5034143;28;20021;-64
2022/09/19 08:13:18;;;;;;;3.75;1.08;;;;;;;19.01;52.32;101869.34;5031990;28;20045;-64
2022/09/19 08:15:44;;;;;;;3.60;1.45;;;;;;;19.05;52.05;101876.16;5042778;28;20033;-58
2022/09/19 08:18:13;;;;;;;2.72;0.88;;;;;;;19.08;51.91;101881.25;5039303;28;20432;-63
2022/09/19 08:20:39;;;;;;;4.13;2.15;;;;;;;19.10;52.10;101881.09;5028888;28;20036;-63
2022/09/19 08:23:08;;;;;;;7.03;1.58;;;;;;;19.11;51.75;101882.78;5031046;28;20037;-62
2022/09/19 08:25:34;;;;;;;;;;;;;;;19.13;51.83;101887.06;5033529;28;20018;-64
2022/09/19 08:28:03;;;;;;;4.93;2.13;;;;;;;19.16;52.03;101888.63;5027618;28;19919;-63
2022/09/19 08:30:28;;;;;;;;;;;;;;;19.20;51.68;101890.03;5031960;28;20022;-65
2022/09/19 08:32:56;;;;;;;4.70;1.40;;;;;;;19.21;51.58;101892.56;5034945;28;19910;-64
2022/09/19 08:35:21;;;;;;;2.33;1.02;;;;;;;19.12;51.88;101877.28;5043996;28;20450;-63
2022/09/19 08:37:47;;;;;;;3.78;0.90;;;;;;;19.27;51.61;101891.13;5041791;28;20025;-63
2022/09/19 08:40:19;;;;;;;2.25;1.02;;;;;;;19.31;51.35;101899.78;5041286;28;20120;-64
2022/09/19 08:43:02;;;;;;;3.33;1.10;;;;;;;19.38;51.47;101900.91;5018075;28;20033;-64
2022/09/19 08:45:36;;;;;;;3.35;1.10;;;;;;;19.42;51.52;101896.91;5037716;28;20086;-63
2022/09/19 08:48:04;;;;;;;3.15;1.33;;;;;;;19.45;51.01;101908.25;5032432;28;20108;-61
2022/09/19 08:50:31;;;;;;;2.85;1.42;;;;;;;19.39;51.20;101887.25;5013634;28;20030;-63
2022/09/19 08:52:58;;;;;;;2.15;0.82;;;;;;;19.49;50.78;101900.69;5017161;28;20058;-65
2022/09/19 08:55:26;;;;;;;2.15;0.80;;;;;;;19.31;50.66;101860.16;5044641;28;20033;-61
2022/09/19 08:57:54;;;;;;;4.30;1.25;;;;;;;19.55;50.83;101900.13;5030764;28;20035;-62
2022/09/19 09:00:22;;;;;;;5.05;1.40;;;;;;;19.57;50.70;101898.09;5026916;28;20049;-59
2022/09/19 09:03:03;;;;;;;3.92;1.00;;;;;;;19.56;50.52;101900.97;5030402;28;20030;-65
2022/09/19 09:05:44;;;;;;;2.97;1.05;;;;;;;19.63;50.32;101910.19;5020924;28;20021;-61
2022/09/19 09:08:12;;;;;;;2.70;0.90;;;;;;;19.68;50.43;101903.34;5054564;28;20029;-63
2022/09/19 09:10:53;;;;;;;2.53;0.90;;;;;;;19.72;50.09;101910.13;5035889;28;20037;-63
2022/09/19 09:13:24;;;;;;;4.88;1.00;;;;;;;19.79;50.36;101914.94;5027310;28;20029;-62
2022/09/19 09:16:10;;;;;;;2.60;1.10;;;;;;;19.86;50.21;101907.94;5041803;28;20036;-65
2022/09/19 09:18:49;;;;;;;1.98;1.00;;;;;;;19.82;49.84;101888.50;5044431;28;20024;-65
2022/09/19 09:21:27;;;;;;;2.55;1.00;;;;;;;19.94;49.75;101908.88;5015527;28;20022;-63
2022/09/19 09:23:57;;;;;;;3.00;1.10;;;;;;;19.94;49.53;101900.78;5011149;28;20068;-62
2022/09/19 09:26:25;;;;;;;4.50;1.27;;;;;;;19.75;49.74;101871.19;5034283;28;20734;-64
2022/09/19 09:28:55;;;;;;;1.80;0.77;;;;;;;19.98;49.92;101906.72;5020609;28;20041;-61
2022/09/19 09:31:24;;;;;;;2.95;1.10;;;;;;;20.00;49.40;101912.81;5009556;28;20049;-60
2022/09/19 09:33:59;;;;;;;3.80;1.23;;;;;;;20.01;49.68;101902.84;5023942;28;20445;-61
2022/09/19 09:36:31;;;;;;;2.10;1.13;;;;;;;19.98;49.51;101895.94;5022335;28;20110;-62
2022/09/19 09:39:13;;;;;;;2.13;1.27;;;;;;;20.10;49.45;101915.47;5011998;28;20056;-61
2022/09/19 09:41:45;;;;;;;2.88;1.13;;;;;;;20.14;49.17;101917.72;5022383;28;20049;-64
2022/09/19 09:44:13;;;;;;;2.38;0.80;;;;;;;20.17;49.15;101914.69;5021605;28;20056;-64
2022/09/19 09:46:50;;;;;;;2.65;1.02;;;;;;;20.22;49.02;101922.34;5030578;28;20479;-64
2022/09/19 09:49:17;;;;;;;4.43;0.98;;;;;;;20.16;48.79;101904.91;5038341;28;20072;-62
2022/09/19 09:51:45;;;;;;;1.75;0.60;;;;;;;20.25;49.02;101910.38;5032956;28;20033;-62
2022/09/19 09:57:28;;;;;;;2.92;0.80;;;;;;;20.30;48.43;101916.16;5036336;28;20360;-63
2022/09/19 10:05:58;;;;;;;2.42;0.80;;;;;;;20.24;48.94;101909.53;5008324;28;20088;-64
2022/09/19 10:08:28;;;;;;;2.35;0.90;;;;;;;20.20;49.16;101913.53;5030684;28;20043;-60
2022/09/19 10:11:02;;;;;;;2.65;1.05;;;;;;;20.16;49.35;101910.28;5026307;28;20044;-62
2022/09/19 10:13:31;;;;;;;2.28;0.90;;;;;;;20.15;49.20;101907.75;5025669;28;20196;-63
2022/09/19 10:16:02;;;;;;;2.80;0.98;;;;;;;20.06;49.05;101898.72;5009268;28;20029;-62
2022/09/19 10:18:36;;;;;;;2.30;0.70;;;;;;;20.14;49.10;101908.78;5019514;28;20059;-64
2022/09/19 10:21:02;;;;;;;3.78;1.10;;;;;;;20.13;49.38;101907.03;5028130;28;20026;-64
2022/09/19 10:23:32;;;;;;;4.15;1.20;;;;;;;20.11;49.43;101907.22;5037357;28;20040;-64
2022/09/19 10:26:05;;;;;;;5.10;1.20;;;;;;;20.11;49.26;101907.22;5034862;28;20120;-63
2022/09/19 10:28:37;;;;;;;2.03;0.90;;;;;;;20.10;49.67;101918.16;5032299;28;20056;-62
2022/09/19 10:31:04;;;;;;;2.67;0.75;;;;;;;20.07;49.86;101913.91;5031138;28;20068;-65
2022/09/19 10:33:38;;;;;;;0.82;0.50;;;;;;;20.10;49.51;101908.22;5036812;28;20418;-71
2022/09/19 10:36:25;;;;;;;1.48;0.77;;;;;;;20.11;49.63;101898.25;5022735;28;20037;-61
2022/09/19 10:38:58;;;;;;;1.90;0.70;;;;;;;20.03;50.01;101893.63;5029233;28;20092;-62
2022/09/19 10:41:26;;;;;;;1.90;1.13;;;;;;;20.09;49.63;101909.22;5030180;28;20040;-58
2022/09/19 10:43:58;;;;;;;2.33;0.70;;;;;;;20.11;50.07;101898.25;5023424;28;20224;-59
2022/09/19 10:46:31;;;;;;;1.67;0.75;;;;;;;20.05;49.63;101893.47;5038854;28;20081;-60
2022/09/19 10:48:57;;;;;;;2.70;0.82;;;;;;;20.16;49.98;101914.84;5023504;28;20120;-58
2022/09/19 10:51:33;;;;;;;4.63;0.75;;;;;;;20.09;49.53;101893.03;5039469;28;20422;-59
2022/09/19 10:53:59;;;;;;;2.20;0.73;;;;;;;20.20;49.92;101898.19;5041421;28;20589;-56
2022/09/19 10:56:28;;;;;;;2.78;0.82;;;;;;;20.23;49.78;101914.09;5042382;28;20018;-59
2022/09/19 10:59:07;;;;;;;2.47;0.80;;;;;;;20.26;49.75;101912.06;5018943;28;20017;-59
2022/09/19 11:01:32;;;;;;;;;;;;;;;20.26;49.93;101910.22;5017288;28;20029;-59
2022/09/19 11:03:59;;;;;;;1.27;0.57;;;;;;;20.27;49.95;101908.41;5034561;28;19949;-59
2022/09/19 11:06:25;;;;;;;1.98;0.70;;;;;;;20.28;49.98;101918.19;5033676;28;20022;-59
2022/09/19 11:08:52;;;;;;;2.15;0.70;;;;;;;20.30;49.64;101906.22;5045995;28;20621;-58
2022/09/19 11:11:36;;;;;;;2.03;0.80;;;;;;;20.31;50.38;101910.63;5041922;28;20037;-58
2022/09/19 11:14:11;;;;;;;2.10;1.00;;;;;;;20.32;49.91;101916.88;5041684;28;20796;-59
2022/09/19 11:16:45;;;;;;;2.60;1.10;;;;;;;20.33;50.45;101910.47;5042381;28;20044;-59
2022/09/19 11:19:15;;;;;;;3.60;1.02;;;;;;;20.33;50.41;101903.22;5040235;28;20029;-58
2022/09/19 11:22:09;;;;;;;4.93;1.33;;;;;;;20.38;50.26;101910.84;5041058;28;20025;-58
2022/09/19 11:24:59;;;;;;;2.33;0.65;;;;;;;20.41;50.22;101899.75;4978122;28;20031;-59
2022/09/19 11:27:42;;;;;;;1.92;0.98;;;;;;;20.46;50.41;101900.13;4978629;28;20054;-64
2022/09/19 11:30:13;;;;;;;1.90;0.85;;;;;;;20.49;50.32;101909.81;4972509;28;20790;-62
2022/09/19 11:33:00;;;;;;;3.63;0.82;;;;;;;20.50;50.24;101908.81;4966233;28;20035;-62
2022/09/19 11:35:44;;;;;;;3.10;0.80;;;;;;;20.42;50.63;101898.72;4965486;28;20046;-63
2022/09/19 11:38:32;;;;;;;3.20;1.63;;;;;;;20.45;50.39;101918.19;4968288;28;20041;-63
2022/09/19 11:41:06;;;;;;;2.40;1.20;;;;;;;20.41;50.59;101919.50;4980143;28;20047;-59
2022/09/19 11:43:59;;;;;;;4.38;1.00;;;;;;;20.37;50.87;101918.09;4964066;28;20015;-61
2022/09/19 11:46:40;;;;;;;2.10;0.85;;;;;;;20.36;50.73;101924.53;4966462;28;20093;-60
2022/09/19 11:49:46;;;;;;;3.13;0.82;;;;;;;20.40;50.83;101923.22;4984626;28;20043;-58
2022/09/19 11:52:12;;;;;;;2.05;1.05;;;;;;;20.44;50.59;101918.34;4983762;28;20037;-62
2022/09/19 11:54:59;;;;;;;2.55;0.73;;;;;;;20.50;50.66;101917.75;4984121;28;20030;-60